Time;durP1;ratioP1;P1;durP2;ratioP2;P2;SDS_P1;SDS_P2;PMS_P1;PMS_P2;Temp;Humidity;BMP_temperature;BMP_pressure;BME280_temperature;BME280_humidity;BME280_pressure;Samples;Min_cycle;Max_cycle;Signal;HPM_P1;HPM_P2
2022/07/19 00:02:03;;;;;;;8.13;3.05;;;;;;;19.65;49.09;100791.69;5114036;28;20405;-72
2022/07/19 00:04:32;;;;;;;7.95;2.75;;;;;;;19.57;49.15;100797.78;5113479;28;20051;-72
2022/07/19 00:07:00;;;;;;;7.88;2.95;;;;;;;19.52;49.57;100788.34;5113653;28;20393;-72
2022/07/19 00:09:28;;;;;;;10.10;3.00;;;;;;;19.45;49.03;100797.00;5095317;28;20050;-71
2022/07/19 00:11:57;;;;;;;8.75;2.30;;;;;;;19.44;48.23;100791.72;5113711;28;20067;-71
2022/07/19 00:14:25;;;;;;;5.90;3.05;;;;;;;19.44;49.40;100798.00;5095052;28;20112;-71
2022/07/19 00:16:55;;;;;;;9.32;3.13;;;;;;;19.52;50.43;100791.06;5113496;28;20100;-70
2022/07/19 00:19:23;;;;;;;9.60;3.10;;;;;;;19.66;49.65;100799.66;5113362;28;20056;-70
2022/07/19 00:21:51;;;;;;;6.88;2.63;;;;;;;19.69;49.50;100802.13;5113454;28;20477;-70
2022/07/19 00:24:19;;;;;;;10.85;3.13;;;;;;;19.68;48.24;100800.38;5095246;28;20101;-70
2022/07/19 00:26:47;;;;;;;8.75;3.25;;;;;;;19.77;48.82;100790.59;5113115;28;20539;-70
2022/07/19 00:29:16;;;;;;;7.00;2.90;;;;;;;19.77;49.21;100796.00;5113374;28;20043;-70
2022/07/19 00:31:44;;;;;;;10.00;3.55;;;;;;;19.60;49.36;100791.25;5113329;28;20036;-70
2022/07/19 00:34:13;;;;;;;7.53;2.97;;;;;;;19.50;49.79;100791.19;5095104;28;20051;-69
2022/07/19 00:36:41;;;;;;;6.97;2.67;;;;;;;19.40;50.30;100788.47;5113159;28;20039;-70
2022/07/19 00:39:10;;;;;;;9.05;3.00;;;;;;;19.29;50.78;100793.94;5113571;28;20061;-70
2022/07/19 00:41:42;;;;;;;6.15;2.70;;;;;;;19.27;51.06;100793.22;5112956;28;20490;-69
2022/07/19 00:44:11;;;;;;;7.47;3.10;;;;;;;19.42;49.96;100796.44;5113483;28;20081;-69
2022/07/19 00:46:39;;;;;;;7.15;3.03;;;;;;;19.42;50.09;100797.28;5112976;28;20062;-70
2022/07/19 00:49:07;;;;;;;8.75;2.65;;;;;;;19.46;50.15;100800.56;5095157;28;20047;-69
2022/07/19 00:51:40;;;;;;;8.38;2.75;;;;;;;19.44;49.87;100794.44;5112902;28;20044;-70
2022/07/19 00:54:12;;;;;;;6.70;2.60;;;;;;;19.50;49.78;100801.16;5113124;28;20122;-69
2022/07/19 00:56:41;;;;;;;6.82;2.40;;;;;;;19.56;49.79;100792.50;5113230;28;20192;-69
2022/07/19 00:59:12;;;;;;;4.55;2.65;;;;;;;19.57;49.18;100794.22;5113106;28;20063;-69
2022/07/19 01:01:41;;;;;;;6.95;2.97;;;;;;;19.30;50.60;100786.66;5113091;28;20048;-70
2022/07/19 01:04:11;;;;;;;7.43;2.72;;;;;;;19.36;49.71;100794.25;5113187;28;20042;-70
2022/07/19 01:06:41;;;;;;;7.50;2.40;;;;;;;19.47;49.46;100790.59;5094359;28;20051;-70
2022/07/19 01:09:10;;;;;;;7.22;2.40;;;;;;;19.30;48.54;100792.97;5113149;28;20519;-70
2022/07/19 01:11:39;;;;;;;8.10;2.75;;;;;;;19.29;48.32;100791.22;5113067;28;20482;-70
2022/07/19 01:14:07;;;;;;;6.10;2.58;;;;;;;19.22;49.11;100790.06;5112958;28;20043;-69
2022/07/19 01:16:36;;;;;;;5.63;2.75;;;;;;;19.24;48.74;100795.34;5112875;28;20048;-70
2022/07/19 01:19:06;;;;;;;7.45;2.63;;;;;;;19.26;48.39;100785.25;5112996;28;20114;-70
2022/07/19 01:21:36;;;;;;;8.00;2.63;;;;;;;19.07;48.71;100788.69;5112962;28;20044;-71
2022/07/19 01:24:05;;;;;;;5.32;2.35;;;;;;;19.18;47.91;100788.63;5112989;28;20047;-70
2022/07/19 01:26:33;;;;;;;5.78;2.20;;;;;;;19.30;47.11;100787.56;5113613;28;20036;-70
2022/07/19 01:29:01;;;;;;;7.55;2.60;;;;;;;19.30;47.03;100782.16;5116671;28;20051;-70
2022/07/19 01:31:30;;;;;;;8.00;2.70;;;;;;;19.34;47.05;100788.13;5116525;28;20484;-71
2022/07/19 01:33:58;;;;;;;6.53;2.40;;;;;;;19.29;47.18;100777.69;5098140;28;20461;-70
2022/07/19 01:36:27;;;;;;;6.97;2.40;;;;;;;19.19;48.17;100784.91;5116516;28;20373;-70
2022/07/19 01:38:56;;;;;;;8.10;2.72;;;;;;;19.01;49.42;100782.00;5116371;28;20047;-70
2022/07/19 01:41:24;;;;;;;6.78;2.70;;;;;;;18.86;50.58;100776.06;5116320;28;20040;-70
2022/07/19 01:43:52;;;;;;;8.57;2.70;;;;;;;18.76;51.23;100772.44;5116130;28;20050;-71
2022/07/19 01:46:21;;;;;;;7.57;2.42;;;;;;;18.67;52.32;100777.78;5116266;28;20118;-70
2022/07/19 01:48:49;;;;;;;6.47;2.67;;;;;;;18.54;52.22;100772.56;5116051;28;20039;-70
2022/07/19 01:51:17;;;;;;;9.73;2.55;;;;;;;18.44;52.42;100768.91;5116605;28;20074;-71
2022/07/19 01:53:45;;;;;;;5.38;2.67;;;;;;;18.34;53.21;100768.00;5116342;28;20437;-71
2022/07/19 01:56:15;;;;;;;6.78;2.58;;;;;;;18.36;53.41;100774.97;5116127;28;20408;-71
2022/07/19 01:58:43;;;;;;;5.72;2.65;;;;;;;18.29;53.83;100769.22;5115964;28;20035;-71
2022/07/19 02:01:11;;;;;;;7.03;2.97;;;;;;;18.20;54.03;100775.38;5097985;28;20043;-71
2022/07/19 02:03:40;;;;;;;8.13;2.90;;;;;;;18.36;53.68;100774.09;5115959;28;20546;-71
2022/07/19 02:06:09;;;;;;;9.38;3.28;;;;;;;18.42;53.98;100768.16;5097936;28;20047;-73
2022/07/19 02:08:38;;;;;;;9.13;4.55;;;;;;;18.41;54.40;100766.47;5116107;28;20435;-74
2022/07/19 02:13:51;;;;;;;5.23;2.73;;;;;;;18.61;54.02;100776.41;5114959;28;20040;-73
2022/07/19 02:16:19;;;;;;;8.68;2.95;;;;;;;18.42;54.24;100774.41;5098136;28;20047;-73
2022/07/19 02:18:48;;;;;;;8.10;3.03;;;;;;;18.51;54.26;100787.16;5115507;28;20035;-74
2022/07/19 02:21:16;;;;;;;8.18;3.08;;;;;;;18.42;54.13;100784.38;5097842;28;20048;-73
2022/07/19 02:23:44;;;;;;;7.90;2.80;;;;;;;18.46;53.72;100780.44;5115718;28;20047;-73
2022/07/19 02:26:13;;;;;;;7.55;2.85;;;;;;;18.47;54.01;100792.97;5115763;28;20068;-73
2022/07/19 02:28:42;;;;;;;5.18;2.80;;;;;;;18.43;52.54;100789.66;5097281;28;20514;-73
2022/07/19 02:31:12;;;;;;;7.57;2.75;;;;;;;18.38;53.77;100793.72;5115450;28;20082;-71
2022/07/19 02:33:40;;;;;;;6.82;2.60;;;;;;;18.25;53.79;100794.78;5115259;28;20039;-71
2022/07/19 02:36:08;;;;;;;5.93;2.50;;;;;;;18.02;53.39;100799.38;5115562;28;20090;-70
2022/07/19 02:38:36;;;;;;;5.53;2.30;;;;;;;18.01;54.31;100796.78;5115480;28;20429;-70
2022/07/19 02:41:05;;;;;;;6.85;2.33;;;;;;;17.63;56.19;100791.81;5115373;28;20051;-71
2022/07/19 02:43:33;;;;;;;6.10;2.58;;;;;;;17.77;55.50;100793.44;5115465;28;20043;-71
2022/07/19 02:46:01;;;;;;;6.03;2.30;;;;;;;17.85;54.49;100797.19;5114862;28;20050;-71
2022/07/19 02:48:31;;;;;;;5.53;2.47;;;;;;;17.93;54.43;100799.25;5115074;28;20384;-71
2022/07/19 02:50:59;;;;;;;6.60;2.60;;;;;;;17.96;54.08;100793.63;5114950;28;20046;-71
2022/07/19 02:53:27;;;;;;;5.70;2.67;;;;;;;17.74;55.04;100800.78;5115236;28;20074;-71
2022/07/19 02:55:55;;;;;;;6.03;2.70;;;;;;;17.79;55.23;100796.84;5114890;28;20048;-71
2022/07/19 02:58:23;;;;;;;8.00;2.75;;;;;;;17.68;55.91;100795.84;5114878;28;20100;-71
2022/07/19 03:00:51;;;;;;;6.65;2.72;;;;;;;17.56;56.42;100795.97;5114850;28;20035;-71
2022/07/19 03:06:07;;;;;;;5.28;2.30;;;;;;;17.69;56.05;100802.09;5114914;28;20043;-70
2022/07/19 03:08:35;;;;;;;5.63;2.45;;;;;;;17.61;56.56;100802.72;5114648;28;20111;-69
2022/07/19 03:11:04;;;;;;;6.75;3.08;;;;;;;17.68;56.21;100809.34;5114401;28;20039;-70
2022/07/19 03:13:32;;;;;;;5.55;2.80;;;;;;;17.67;56.33;100807.63;5114535;28;20040;-71
2022/07/19 03:16:00;;;;;;;7.10;2.63;;;;;;;17.51;57.14;100814.38;5114187;28;20544;-71
2022/07/19 03:18:29;;;;;;;5.45;2.63;;;;;;;17.60;56.52;100803.72;5114595;28;20040;-70
2022/07/19 03:20:58;;;;;;;6.97;2.40;;;;;;;17.69;55.88;100808.41;5114162;28;20055;-70
2022/07/19 03:23:28;;;;;;;7.03;2.90;;;;;;;17.72;55.82;100810.84;5114458;28;20374;-70
2022/07/19 03:25:57;;;;;;;5.97;2.80;;;;;;;17.69;55.80;100808.41;5095807;28;20052;-71
2022/07/19 03:28:25;;;;;;;7.78;2.53;;;;;;;17.71;55.66;100811.81;5114424;28;20039;-70
2022/07/19 03:30:53;;;;;;;10.07;2.97;;;;;;;17.90;55.35;100807.63;5114157;28;20126;-71
2022/07/19 03:33:21;;;;;;;7.07;2.55;;;;;;;17.99;55.13;100817.66;5114144;28;20039;-71
2022/07/19 03:35:50;;;;;;;7.30;2.17;;;;;;;17.94;55.38;100815.31;5114043;28;20054;-71
2022/07/19 03:38:18;;;;;;;6.57;2.40;;;;;;;18.06;55.54;100821.59;5114479;28;20055;-70
2022/07/19 03:40:48;;;;;;;6.45;2.65;;;;;;;17.95;56.24;100818.88;5114027;28;20114;-70
2022/07/19 03:43:17;;;;;;;6.10;2.42;;;;;;;18.00;56.20;100819.38;5114218;28;20045;-70
2022/07/19 03:45:46;;;;;;;9.32;2.53;;;;;;;18.38;54.26;100818.91;5114022;28;20051;-71
2022/07/19 03:48:14;;;;;;;6.75;2.28;;;;;;;18.34;54.24;100816.59;5113812;28;20047;-71
2022/07/19 03:50:43;;;;;;;7.68;2.80;;;;;;;18.70;53.22;100827.00;5095087;28;20047;-72
2022/07/19 03:53:12;;;;;;;7.78;2.28;;;;;;;19.61;50.75;100826.31;5114122;28;20134;-70
2022/07/19 03:55:40;;;;;;;6.60;2.50;;;;;;;20.28;49.14;100819.34;5113818;28;20411;-70
2022/07/19 03:58:09;;;;;;;6.88;2.67;;;;;;;20.99;46.46;100827.19;5113738;28;20050;-70
2022/07/19 04:00:38;;;;;;;6.32;2.35;;;;;;;21.47;45.74;100835.22;5113571;28;20105;-70
2022/07/19 04:03:06;;;;;;;5.35;2.30;;;;;;;21.86;44.94;100832.34;5113672;28;20043;-70
2022/07/19 04:05:35;;;;;;;5.72;2.40;;;;;;;22.31;42.92;100834.25;5113539;28;20040;-71
2022/07/19 04:08:03;;;;;;;5.55;2.20;;;;;;;22.47;42.56;100831.69;5113379;28;20052;-71
2022/07/19 04:10:32;;;;;;;5.32;2.35;;;;;;;23.16;41.34;100832.78;5113602;28;20131;-71
2022/07/19 04:13:00;;;;;;;8.32;2.65;;;;;;;23.53;40.79;100840.69;5095207;28;20055;-70
2022/07/19 04:15:29;;;;;;;8.85;2.53;;;;;;;23.26;40.22;100828.97;5113541;28;20051;-69
2022/07/19 04:17:57;;;;;;;7.55;2.20;;;;;;;24.16;38.37;100837.56;5113344;28;20503;-70
2022/07/19 04:20:25;;;;;;;7.25;2.30;;;;;;;24.82;37.29;100833.97;5113686;28;20071;-69
2022/07/19 04:22:56;;;;;;;6.93;2.28;;;;;;;24.79;36.99;100835.13;5113533;28;20553;-70
2022/07/19 04:25:24;;;;;;;8.50;2.60;;;;;;;24.86;37.05;100835.31;5113749;28;20397;-70
2022/07/19 04:27:52;;;;;;;7.35;2.20;;;;;;;24.48;37.61;100847.72;5113159;28;20046;-71
2022/07/19 04:30:20;;;;;;;6.47;2.33;;;;;;;25.05;36.44;100845.91;5113259;28;20047;-69
2022/07/19 04:32:50;;;;;;;7.13;2.03;;;;;;;25.29;36.11;100846.91;5112960;28;20396;-69
2022/07/19 04:35:18;;;;;;;6.47;2.40;;;;;;;24.99;36.60;100846.53;5113566;28;20123;-69
2022/07/19 04:37:46;;;;;;;6.00;2.40;;;;;;;25.13;36.66;100844.19;5094612;28;20063;-70
2022/07/19 04:40:14;;;;;;;5.03;2.03;;;;;;;25.15;36.59;100840.25;5100686;28;20070;-69
2022/07/19 04:42:42;;;;;;;6.95;2.40;;;;;;;24.44;37.86;100852.69;5074827;28;20071;-70
2022/07/19 04:45:11;;;;;;;6.72;2.40;;;;;;;25.52;36.17;100844.28;5092724;28;20580;-71
2022/07/19 04:47:39;;;;;;;6.03;2.20;;;;;;;25.37;36.10;100838.69;5105064;28;20043;-72
2022/07/19 04:50:10;;;;;;;5.97;2.30;;;;;;;25.80;35.68;100839.28;5094854;28;20130;-71
2022/07/19 04:52:38;;;;;;;6.15;2.28;;;;;;;26.56;34.78;100841.28;5113336;28;20085;-70
2022/07/19 04:55:08;;;;;;;6.03;2.45;;;;;;;26.63;34.76;100834.03;5112759;28;20047;-70
2022/07/19 04:57:36;;;;;;;7.72;2.20;;;;;;;26.77;33.88;100832.41;5113073;28;20050;-73
2022/07/19 05:00:05;;;;;;;5.10;1.90;;;;;;;27.28;33.12;100836.22;5112998;28;20122;-72
2022/07/19 05:02:34;;;;;;;7.63;2.22;;;;;;;26.95;33.35;100835.66;5115742;28;20074;-70
2022/07/19 05:05:02;;;;;;;6.35;2.40;;;;;;;27.20;32.95;100833.56;5116988;28;20044;-71
2022/07/19 05:07:32;;;;;;;6.72;2.60;;;;;;;27.75;31.91;100832.31;5117083;28;20075;-73
2022/07/19 05:10:00;;;;;;;3.97;1.92;;;;;;;27.41;31.58;100837.44;5116697;28;20408;-68
2022/07/19 05:12:28;;;;;;;6.07;2.25;;;;;;;27.75;31.39;100836.94;5116870;28;20504;-66
2022/07/19 05:14:58;;;;;;;7.85;2.67;;;;;;;27.96;30.16;100839.75;5116458;28;20401;-68
2022/07/19 05:17:27;;;;;;;5.95;2.30;;;;;;;28.02;30.90;100849.09;5109061;28;20386;-67
2022/07/19 05:19:55;;;;;;;6.47;2.70;;;;;;;28.01;30.50;100842.78;5077826;28;20083;-69
2022/07/19 05:22:24;;;;;;;4.47;2.15;;;;;;;28.64;29.99;100848.56;5110380;28;20048;-67
2022/07/19 05:24:55;;;;;;;8.93;2.20;;;;;;;28.75;29.71;100840.66;5098009;28;20051;-70
2022/07/19 05:27:24;;;;;;;7.72;2.38;;;;;;;29.24;28.95;100838.97;5116553;28;20036;-67
2022/07/19 05:29:52;;;;;;;7.43;2.33;;;;;;;28.82;29.80;100837.97;5116419;28;20492;-67
2022/07/19 05:32:20;;;;;;;9.57;2.47;;;;;;;29.42;28.09;100831.09;5116445;28;20392;-69
2022/07/19 05:34:48;;;;;;;8.50;2.60;;;;;;;29.17;28.45;100832.63;5116184;28;20089;-75
2022/07/19 05:37:16;;;;;;;6.85;2.25;;;;;;;29.62;27.87;100836.72;5098010;28;20051;-68
2022/07/19 05:39:44;;;;;;;6.47;2.33;;;;;;;29.72;28.54;100831.72;5116186;28;20054;-68
2022/07/19 05:42:14;;;;;;;5.53;2.35;;;;;;;30.20;27.00;100837.25;5097972;28;20047;-68
2022/07/19 05:44:42;;;;;;;6.20;2.20;;;;;;;29.86;26.79;100832.66;5116423;28;20040;-68
2022/07/19 05:47:10;;;;;;;6.82;2.33;;;;;;;29.62;27.52;100832.09;5115912;28;20374;-68
2022/07/19 05:49:38;;;;;;;7.95;2.40;;;;;;;29.46;27.98;100832.41;5116302;28;20052;-68
2022/07/19 05:52:06;;;;;;;8.77;2.10;;;;;;;30.06;26.83;100832.72;5114552;28;20035;-66
2022/07/19 05:54:34;;;;;;;6.63;2.05;;;;;;;30.24;26.68;100832.19;5115592;28;20201;-67
2022/07/19 05:57:02;;;;;;;9.48;2.40;;;;;;;30.73;26.41;100831.91;5115750;28;20067;-68
2022/07/19 05:59:35;;;;;;;4.63;2.00;;;;;;;30.75;25.64;100818.78;5097431;28;20056;-68
2022/07/19 06:02:03;;;;;;;7.50;2.25;;;;;;;30.16;25.33;100828.56;5115688;28;20068;-68
2022/07/19 06:04:31;;;;;;;5.93;2.10;;;;;;;30.68;25.69;100824.25;5115696;28;20123;-67
2022/07/19 06:06:59;;;;;;;7.30;2.42;;;;;;;30.87;25.42;100827.25;5093879;28;20127;-68
2022/07/19 06:09:28;;;;;;;10.70;2.40;;;;;;;31.51;24.21;100821.06;5095313;28;20443;-68
2022/07/19 06:11:56;;;;;;;7.00;2.10;;;;;;;31.33;24.39;100825.34;5103180;28;20065;-70
2022/07/19 06:14:24;;;;;;;10.85;2.30;;;;;;;31.39;24.03;100829.16;5113574;28;20043;-70
2022/07/19 06:16:54;;;;;;;8.32;2.28;;;;;;;31.21;24.99;100829.81;5096101;28;20048;-71
2022/07/19 06:19:22;;;;;;;5.15;2.25;;;;;;;31.61;24.00;100827.00;5096250;28;20127;-71
2022/07/19 06:21:50;;;;;;;8.77;2.33;;;;;;;31.75;24.24;100828.69;5115171;28;20035;-70
2022/07/19 06:24:18;;;;;;;9.07;2.10;;;;;;;31.64;24.33;100829.31;5096867;28;20044;-70
2022/07/19 06:26:46;;;;;;;9.77;2.38;;;;;;;31.86;24.09;100835.44;5097084;28;20073;-71
2022/07/19 06:29:14;;;;;;;7.63;2.28;;;;;;;31.98;24.11;100835.59;5115014;28;20229;-71
2022/07/19 06:31:42;;;;;;;7.20;2.10;;;;;;;32.64;22.96;100838.88;5115144;28;20397;-68
2022/07/19 06:34:12;;;;;;;9.57;2.17;;;;;;;32.29;23.44;100838.41;5096713;28;20085;-68
2022/07/19 06:36:40;;;;;;;9.02;2.63;;;;;;;32.27;23.03;100839.72;5115038;28;20040;-71
2022/07/19 06:39:08;;;;;;;6.78;2.47;;;;;;;32.32;23.11;100840.75;5115052;28;20054;-69
2022/07/19 06:41:37;;;;;;;6.85;2.50;;;;;;;32.16;23.03;100841.25;5096942;28;20079;-69
2022/07/19 06:44:05;;;;;;;6.43;2.00;;;;;;;32.12;21.99;100837.22;5114778;28;20518;-69
2022/07/19 06:46:34;;;;;;;5.90;2.00;;;;;;;32.08;22.57;100838.75;5114874;28;20394;-69
2022/07/19 06:49:02;;;;;;;6.47;2.45;;;;;;;33.04;22.36;100830.31;5096307;28;20055;-69
2022/07/19 06:51:32;;;;;;;9.20;2.30;;;;;;;33.01;21.43;100831.63;5115013;28;20138;-71
2022/07/19 06:54:00;;;;;;;5.50;2.08;;;;;;;33.36;20.80;100831.09;5114787;28;20067;-69
2022/07/19 06:56:28;;;;;;;10.15;2.65;;;;;;;33.43;20.82;100825.50;5115070;28;20541;-69
2022/07/19 06:58:57;;;;;;;7.90;2.33;;;;;;;33.78;20.66;100817.44;5096555;28;20061;-69
2022/07/19 07:01:25;;;;;;;8.30;2.40;;;;;;;33.93;20.51;100817.94;5096594;28;20130;-70
2022/07/19 07:03:53;;;;;;;8.45;2.05;;;;;;;33.68;21.03;100814.38;5114671;28;20059;-70
2022/07/19 07:06:22;;;;;;;10.85;2.75;;;;;;;33.08;21.05;100819.63;5096351;28;20559;-69
2022/07/19 07:08:51;;;;;;;8.82;2.28;;;;;;;31.99;22.39;100823.50;5096202;28;20043;-68
2022/07/19 07:11:19;;;;;;;10.20;2.45;;;;;;;31.30;22.89;100823.03;5114568;28;20067;-69
2022/07/19 07:13:47;;;;;;;10.48;2.40;;;;;;;30.28;25.17;100814.22;5114287;28;20046;-70
2022/07/19 07:16:15;;;;;;;9.45;2.28;;;;;;;30.27;24.99;100823.53;5103235;28;20052;-68
2022/07/19 07:18:44;;;;;;;6.32;1.90;;;;;;;29.98;25.40;100821.91;5093472;28;20123;-69
2022/07/19 07:21:12;;;;;;;6.00;2.00;;;;;;;29.67;25.35;100817.75;5093353;28;20063;-68
2022/07/19 07:23:40;;;;;;;7.03;2.15;;;;;;;29.49;25.55;100815.53;5075420;28;20449;-68
2022/07/19 07:26:11;;;;;;;8.07;2.08;;;;;;;29.28;25.65;100815.56;5093261;28;20040;-68
2022/07/19 07:28:40;;;;;;;14.35;2.40;;;;;;;29.08;25.98;100816.28;5094016;28;20044;-68
2022/07/19 07:31:08;;;;;;;5.50;1.73;;;;;;;29.22;25.51;100813.63;5093607;28;20094;-69
2022/07/19 07:33:36;;;;;;;6.05;2.03;;;;;;;29.13;25.99;100818.41;5075371;28;20051;-68
2022/07/19 07:36:05;;;;;;;10.50;2.10;;;;;;;28.98;25.87;100809.44;5093460;28;20082;-69
2022/07/19 07:38:34;;;;;;;7.45;2.05;;;;;;;28.64;26.46;100808.25;5093950;28;20048;-69
2022/07/19 07:41:03;;;;;;;8.43;2.08;;;;;;;28.76;27.05;100805.84;5093222;28;20059;-69
2022/07/19 07:43:53;;;;;;;7.63;2.00;;;;;;;29.01;26.10;100798.88;5093711;28;20040;-68
2022/07/19 07:46:21;;;;;;;10.77;2.25;;;;;;;28.96;25.42;100809.63;5093721;28;20040;-69
2022/07/19 07:48:49;;;;;;;5.20;1.67;;;;;;;28.69;25.58;100807.69;5093286;28;20605;-68
2022/07/19 07:51:23;;;;;;;5.95;1.90;;;;;;;28.45;26.73;100809.75;5093391;28;20040;-68
2022/07/19 07:54:11;;;;;;;5.60;1.83;;;;;;;28.29;26.13;100810.03;5075058;28;20075;-68
2022/07/19 07:56:40;;;;;;;4.68;1.77;;;;;;;28.39;26.49;100810.56;5093436;28;20554;-68
2022/07/19 07:59:10;;;;;;;4.47;1.83;;;;;;;28.40;26.07;100809.50;5093364;28;20055;-68
2022/07/19 08:01:39;;;;;;;8.95;2.20;;;;;;;28.18;27.14;100804.97;5093346;28;20086;-68
2022/07/19 08:04:07;;;;;;;5.40;1.70;;;;;;;28.44;27.40;100804.47;5093312;28;20035;-68
2022/07/19 08:06:36;;;;;;;5.30;2.03;;;;;;;28.55;26.78;100794.84;5093489;28;20040;-68
2022/07/19 08:09:05;;;;;;;4.97;2.10;;;;;;;28.76;26.42;100797.63;5093046;28;20040;-68
2022/07/19 08:11:34;;;;;;;9.18;2.30;;;;;;;28.88;26.22;100801.50;5093119;28;20044;-69
2022/07/19 08:14:02;;;;;;;6.70;1.90;;;;;;;29.06;26.39;100803.81;5093099;28;20051;-69
2022/07/19 08:16:32;;;;;;;4.13;1.67;;;;;;;29.22;25.63;100797.13;5093298;28;20044;-68
2022/07/19 08:19:00;;;;;;;3.58;1.80;;;;;;;29.16;24.71;100804.31;5092731;28;20040;-69
2022/07/19 08:21:29;;;;;;;4.38;1.60;;;;;;;28.84;25.55;100800.19;5093096;28;20040;-68
2022/07/19 08:23:57;;;;;;;6.70;1.75;;;;;;;28.76;25.63;100797.63;5093285;28;20052;-69
2022/07/19 08:26:25;;;;;;;4.90;1.58;;;;;;;28.61;25.87;100794.94;5093210;28;20044;-69
2022/07/19 08:28:53;;;;;;;7.75;1.80;;;;;;;28.63;25.83;100797.47;5075167;28;20048;-68
2022/07/19 08:31:21;;;;;;;4.28;1.60;;;;;;;28.88;25.78;100806.16;5092747;28;20051;-68
2022/07/19 08:33:50;;;;;;;6.75;1.88;;;;;;;28.92;26.35;100789.09;5074805;28;20139;-68
2022/07/19 08:36:19;;;;;;;7.15;1.70;;;;;;;29.16;25.32;100792.47;5076592;28;20052;-68
2022/07/19 08:38:47;;;;;;;7.57;1.50;;;;;;;29.14;24.94;100794.53;5097152;28;20101;-68
2022/07/19 08:41:16;;;;;;;6.45;2.05;;;;;;;29.12;25.19;100800.22;5078902;28;20078;-68
2022/07/19 08:43:44;;;;;;;7.05;2.00;;;;;;;29.18;25.55;100790.34;5079004;28;20050;-68
2022/07/19 08:46:12;;;;;;;6.93;1.80;;;;;;;29.16;25.36;100782.31;5097039;28;20043;-68
2022/07/19 08:48:41;;;;;;;3.90;1.60;;;;;;;29.27;25.22;100780.91;5078605;28;20451;-68
2022/07/19 08:51:19;;;;;;;5.65;1.73;;;;;;;29.58;24.33;100784.06;5078608;28;20055;-68
2022/07/19 08:53:49;;;;;;;3.28;1.40;;;;;;;29.61;23.60;100783.66;5097214;28;20079;-69
2022/07/19 08:59:04;;;;;;;5.97;1.23;;;;;;;29.67;23.52;100778.41;5096753;28;20097;-69
2022/07/19 09:01:33;;;;;;;4.63;1.50;;;;;;;29.76;23.44;100777.19;5078498;28;20056;-69
2022/07/19 09:04:13;;;;;;;7.80;1.73;;;;;;;29.87;23.51;100779.34;5078453;28;20044;-69
2022/07/19 09:06:44;;;;;;;6.85;1.55;;;;;;;29.72;23.61;100782.22;5096831;28;20067;-68
2022/07/19 09:09:14;;;;;;;5.82;1.60;;;;;;;29.74;24.62;100776.56;5078279;28;20048;-69
2022/07/19 09:11:49;;;;;;;3.17;1.30;;;;;;;29.68;23.62;100775.47;5096479;28;20044;-68
2022/07/19 09:14:18;;;;;;;3.70;1.27;;;;;;;29.52;24.35;100771.13;5078273;28;20720;-68
2022/07/19 09:17:04;;;;;;;2.40;1.17;;;;;;;29.55;23.56;100770.75;5096591;28;20075;-68
2022/07/19 09:19:39;;;;;;;5.72;1.40;;;;;;;29.56;23.71;100772.44;5078132;28;20481;-68
2022/07/19 09:22:10;;;;;;;2.67;1.08;;;;;;;29.51;22.89;100766.69;5096180;28;20044;-69
2022/07/19 09:24:41;;;;;;;4.30;1.30;;;;;;;29.38;23.34;100774.84;5096338;28;20040;-68
2022/07/19 09:27:11;;;;;;;2.28;1.00;;;;;;;29.11;23.76;100768.34;5096057;28;20044;-69
2022/07/19 09:29:42;;;;;;;4.78;1.23;;;;;;;29.14;23.32;100775.31;5096325;28;20123;-68
2022/07/19 09:32:14;;;;;;;3.95;1.30;;;;;;;29.07;24.02;100778.88;5096097;28;20040;-69
2022/07/19 09:34:44;;;;;;;4.20;1.20;;;;;;;28.99;24.26;100770.78;5096172;28;20040;-69
2022/07/19 09:37:19;;;;;;;2.65;1.42;;;;;;;28.99;24.41;100776.28;5077866;28;20048;-69
2022/07/19 09:39:50;;;;;;;3.25;1.52;;;;;;;29.02;24.25;100764.88;5077965;28;20082;-68
2022/07/19 09:42:23;;;;;;;4.40;1.20;;;;;;;29.02;24.13;100764.03;5095836;28;20036;-69
2022/07/19 09:44:58;;;;;;;3.00;1.23;;;;;;;29.18;24.14;100762.88;5096073;28;20043;-68
2022/07/19 09:47:34;;;;;;;5.05;1.67;;;;;;;29.41;23.67;100762.59;5094940;28;20089;-69
2022/07/19 09:50:04;;;;;;;3.90;1.40;;;;;;;29.54;24.03;100757.22;5077791;28;20454;-68
2022/07/19 09:52:35;;;;;;;2.58;1.20;;;;;;;29.68;23.36;100758.97;5095896;28;20048;-68
2022/07/19 09:55:13;;;;;;;4.13;1.50;;;;;;;29.63;23.53;100762.34;5095612;28;20047;-69
2022/07/19 09:57:44;;;;;;;5.10;1.35;;;;;;;29.39;24.13;100754.56;5095475;28;20047;-68
2022/07/19 10:00:14;;;;;;;2.78;1.23;;;;;;;29.33;24.21;100755.34;5077336;28;20055;-69
2022/07/19 10:02:45;;;;;;;4.60;1.58;;;;;;;29.59;23.91;100755.53;5095670;28;20040;-68
2022/07/19 10:05:15;;;;;;;2.95;1.25;;;;;;;29.48;24.04;100747.88;5077281;28;20044;-69
2022/07/19 10:07:45;;;;;;;4.93;1.40;;;;;;;29.36;24.04;100755.81;5095506;28;20401;-68
2022/07/19 10:10:15;;;;;;;3.38;1.23;;;;;;;29.53;24.08;100750.00;5095016;28;20123;-69
2022/07/19 10:12:44;;;;;;;5.32;1.50;;;;;;;29.46;24.26;100749.94;5095246;28;20495;-68
2022/07/19 10:15:15;;;;;;;3.30;1.30;;;;;;;29.47;23.82;100750.81;5095023;28;20055;-69
2022/07/19 10:17:55;;;;;;;2.28;1.40;;;;;;;29.43;24.00;100744.84;5095562;28;20067;-68
2022/07/19 10:20:27;;;;;;;5.60;1.50;;;;;;;29.52;24.09;100740.06;5073132;28;20048;-68
2022/07/19 10:23:00;;;;;;;2.00;1.20;;;;;;;29.77;23.79;100741.25;5073640;28;20051;-68
2022/07/19 10:25:44;;;;;;;2.78;1.33;;;;;;;29.88;24.29;100737.03;5074877;28;20048;-68
2022/07/19 10:28:33;;;;;;;3.50;1.17;;;;;;;29.82;24.38;100743.34;5074851;28;20045;-69
2022/07/19 10:31:30;;;;;;;6.53;1.50;;;;;;;29.98;24.11;100737.50;5074636;28;20066;-69
2022/07/19 10:34:01;;;;;;;3.28;1.40;;;;;;;30.13;23.62;100740.13;5074779;28;20477;-68
2022/07/19 10:36:37;;;;;;;5.10;1.35;;;;;;;29.97;24.41;100740.47;5074711;28;20067;-68
2022/07/19 10:39:31;;;;;;;2.78;1.30;;;;;;;29.98;23.93;100732.00;5074832;28;20071;-68
2022/07/19 10:42:18;;;;;;;3.38;1.63;;;;;;;29.83;24.31;100723.94;5073292;28;20164;-69
2022/07/19 10:45:13;;;;;;;3.33;1.30;;;;;;;29.89;23.71;100733.22;5074710;28;20044;-68
2022/07/19 10:48:15;;;;;;;4.60;1.58;;;;;;;29.89;24.26;100727.72;5074099;28;20045;-68
2022/07/19 10:50:58;;;;;;;3.60;1.40;;;;;;;29.78;24.16;100731.09;4993065;28;20046;-68
2022/07/19 10:54:02;;;;;;;;;;;;;;;29.71;23.73;100731.06;4976928;28;20054;-68
2022/07/19 10:56:37;;;;;;;2.30;1.15;;;;;;;29.63;24.21;100723.84;5054184;28;19920;-68
2022/07/19 10:59:31;;;;;;;2.75;1.20;;;;;;;29.79;23.90;100714.38;5073031;28;20119;-69
2022/07/19 11:02:01;;;;;;;4.63;1.37;;;;;;;29.91;24.76;100714.63;5074064;28;20040;-68
2022/07/19 11:04:50;;;;;;;4.68;1.40;;;;;;;30.04;24.81;100705.56;5074194;28;20037;-69
2022/07/19 11:07:21;;;;;;;2.22;1.33;;;;;;;30.17;24.28;100706.47;5073836;28;20051;-69
2022/07/19 11:09:52;;;;;;;5.43;1.50;;;;;;;30.27;23.88;100706.06;5074147;28;20413;-69
2022/07/19 11:12:27;;;;;;;7.90;1.50;;;;;;;30.39;23.56;100700.75;5073773;28;20543;-69
2022/07/19 11:14:56;;;;;;;2.88;1.27;;;;;;;30.60;23.19;100703.34;5072533;28;20094;-69
2022/07/19 11:17:55;;;;;;;3.60;1.52;;;;;;;30.47;23.49;100698.66;5073021;28;20058;-69
2022/07/19 11:20:25;;;;;;;2.85;1.40;;;;;;;30.46;23.72;100696.13;5085495;28;20122;-69
2022/07/19 11:22:55;;;;;;;2.80;1.33;;;;;;;30.44;23.31;100698.25;5093953;28;20040;-69
2022/07/19 11:25:30;;;;;;;2.47;1.35;;;;;;;30.13;24.11;100694.19;5093713;28;20052;-69
2022/07/19 11:28:01;;;;;;;3.75;1.40;;;;;;;30.20;24.14;100684.03;5076135;28;20054;-69
2022/07/19 11:30:31;;;;;;;2.97;1.15;;;;;;;30.37;23.61;100676.22;5093732;28;20044;-69
2022/07/19 11:33:02;;;;;;;5.03;1.60;;;;;;;30.57;23.90;100681.72;5075784;28;20048;-69
2022/07/19 11:35:31;;;;;;;4.05;1.42;;;;;;;30.78;23.79;100681.50;5093622;28;20044;-70
2022/07/19 11:38:01;;;;;;;4.90;1.50;;;;;;;30.81;23.62;100677.50;5093728;28;20047;-69
2022/07/19 11:40:34;;;;;;;4.30;1.70;;;;;;;30.71;23.58;100669.69;5075519;28;20055;-69
2022/07/19 11:43:07;;;;;;;5.22;1.60;;;;;;;30.75;23.42;100664.56;5093626;28;20052;-69
2022/07/19 11:45:50;;;;;;;5.05;1.40;;;;;;;30.79;23.51;100668.59;5093696;28;20044;-69
2022/07/19 11:48:28;;;;;;;5.10;1.60;;;;;;;30.96;23.36;100663.47;5074930;28;20501;-70